createdAt,value
2022-07-26T00:02:57.875Z,6.32
2022-07-26T00:08:11.113Z,4.47
2022-07-26T00:13:14.296Z,4.55
2022-07-26T00:18:18.022Z,6.45
2022-07-26T00:23:20.855Z,7.78
2022-07-26T00:28:23.877Z,4.30
2022-07-26T00:33:27.059Z,4.65
2022-07-26T00:38:29.945Z,4.00
2022-07-26T00:43:34.109Z,3.88
2022-07-26T00:48:38.087Z,4.55
2022-07-26T00:53:40.985Z,4.85
2022-07-26T00:58:44.855Z,4.40
2022-07-26T01:03:52.097Z,4.35
2022-07-26T01:08:55.255Z,4.15
2022-07-26T01:13:57.953Z,4.35
2022-07-26T01:19:00.502Z,4.43
2022-07-26T01:24:03.054Z,3.30
2022-07-26T01:29:06.137Z,4.75
2022-07-26T01:34:09.935Z,3.80
2022-07-26T01:39:12.736Z,3.45
2022-07-26T01:44:15.640Z,3.20
2022-07-26T01:49:18.367Z,3.97
2022-07-26T01:54:22.465Z,4.20
2022-07-26T01:59:27.174Z,5.95
2022-07-26T02:04:48.439Z,3.70
2022-07-26T02:09:51.216Z,4.20
2022-07-26T02:14:55.414Z,3.60
2022-07-26T02:19:58.060Z,3.65
2022-07-26T02:25:04.965Z,2.88
2022-07-26T02:35:12.036Z,2.95
2022-07-26T02:40:19.124Z,4.75
2022-07-26T02:45:22.251Z,6.28
2022-07-26T02:50:26.552Z,4.57
2022-07-26T02:55:29.226Z,5.43
2022-07-26T03:00:31.659Z,5.15
2022-07-26T03:05:34.520Z,5.50
2022-07-26T03:10:37.396Z,5.65
2022-07-26T03:15:40.119Z,6.38
2022-07-26T03:20:42.646Z,2.92
2022-07-26T03:25:45.307Z,3.15
2022-07-26T03:30:47.846Z,3.70
2022-07-26T03:35:50.717Z,3.30
2022-07-26T03:40:53.505Z,4.43
2022-07-26T03:45:56.312Z,4.93
2022-07-26T03:50:58.913Z,6.45
2022-07-26T03:56:29.579Z,3.30
2022-07-26T04:01:32.039Z,3.58
2022-07-26T04:06:34.720Z,3.00
2022-07-26T04:11:37.791Z,4.50
2022-07-26T04:16:43.693Z,5.18
2022-07-26T04:21:46.564Z,4.40
2022-07-26T04:26:49.693Z,4.85
2022-07-26T04:31:52.528Z,3.53
2022-07-26T04:36:56.072Z,3.20
2022-07-26T04:41:58.629Z,6.93
2022-07-26T04:47:01.334Z,5.55
2022-07-26T04:52:04.657Z,4.65
2022-07-26T04:57:07.414Z,3.78
2022-07-26T05:02:11.021Z,4.38
2022-07-26T05:07:13.592Z,3.72
2022-07-26T05:12:17.172Z,4.35
2022-07-26T05:17:19.957Z,3.78
2022-07-26T05:22:24.831Z,3.65
2022-07-26T05:27:28.319Z,4.95
2022-07-26T05:32:32.095Z,5.30
2022-07-26T05:45:22.489Z,4.22
2022-07-26T05:50:25.019Z,3.45
2022-07-26T05:55:29.754Z,4.97
2022-07-26T06:00:32.535Z,4.20
2022-07-26T06:05:35.683Z,6.80
2022-07-26T06:10:38.326Z,6.00
2022-07-26T06:15:42.523Z,9.68
2022-07-26T06:20:46.712Z,10.45
2022-07-26T06:25:49.737Z,12.07
2022-07-26T06:30:52.398Z,8.50
2022-07-26T06:35:54.934Z,9.90
2022-07-26T06:40:57.829Z,11.32
2022-07-26T06:46:01.155Z,12.15
2022-07-26T06:51:05.336Z,11.55
2022-07-26T06:56:08.967Z,10.65
2022-07-26T07:01:12.080Z,11.55
2022-07-26T07:06:15.017Z,13.60
2022-07-26T07:11:17.974Z,12.57
2022-07-26T07:16:23.001Z,11.38
2022-07-26T07:21:26.045Z,12.10
2022-07-26T07:26:28.803Z,12.20
2022-07-26T07:31:48.604Z,12.05
2022-07-26T07:36:52.827Z,12.25
2022-07-26T07:41:56.013Z,12.13
2022-07-26T07:46:59.023Z,12.68
2022-07-26T07:52:02.045Z,13.82
2022-07-26T07:57:05.908Z,10.45
2022-07-26T08:02:09.518Z,12.30
2022-07-26T08:07:12.284Z,9.98
2022-07-26T08:12:14.875Z,10.45
2022-07-26T08:17:17.697Z,12.70
2022-07-26T08:22:24.910Z,12.13
2022-07-26T08:27:27.492Z,9.30
2022-07-26T08:32:30.056Z,10.90
2022-07-26T08:37:32.703Z,10.45
2022-07-26T08:42:35.361Z,11.32
2022-07-26T08:47:50.264Z,9.40
2022-07-26T08:53:09.582Z,5.38
2022-07-26T08:58:12.225Z,6.10
2022-07-26T09:03:27.121Z,11.02
2022-07-26T09:08:30.903Z,6.43
2022-07-26T09:13:58.998Z,6.22
2022-07-26T09:24:35.506Z,5.93
2022-07-26T09:29:44.810Z,4.07
2022-07-26T09:34:52.941Z,5.82
2022-07-26T09:40:00.616Z,5.40
2022-07-26T09:45:05.509Z,5.65
2022-07-26T09:50:25.091Z,8.10
2022-07-26T09:55:34.047Z,10.68
2022-07-26T10:00:43.519Z,6.20
2022-07-26T10:05:47.674Z,6.25
2022-07-26T10:11:09.912Z,8.07
2022-07-26T10:16:33.535Z,7.85
2022-07-26T10:21:36.406Z,7.07
2022-07-26T10:26:43.098Z,6.43
2022-07-26T10:32:11.200Z,9.80
2022-07-26T10:37:24.985Z,7.32
2022-07-26T10:42:43.763Z,6.18
2022-07-26T10:48:12.008Z,7.18
2022-07-26T10:53:20.559Z,6.13
2022-07-26T10:58:24.984Z,5.68
2022-07-26T11:03:41.578Z,4.80
2022-07-26T11:08:48.298Z,6.07
2022-07-26T11:13:51.426Z,5.22
2022-07-26T11:18:55.422Z,8.23
2022-07-26T11:24:04.026Z,7.65
2022-07-26T11:29:06.982Z,9.38
2022-07-26T11:34:17.440Z,6.18
2022-07-26T11:39:30.688Z,4.38
2022-07-26T11:44:34.042Z,6.93
2022-07-26T11:49:51.780Z,6.28
2022-07-26T11:54:59.696Z,7.20
2022-07-26T12:00:02.829Z,4.05
2022-07-26T12:05:20.015Z,3.85
2022-07-26T12:10:23.330Z,4.15
2022-07-26T12:23:13.021Z,4.85
2022-07-26T12:28:15.675Z,6.85
2022-07-26T12:33:18.250Z,4.53
2022-07-26T12:38:40.086Z,4.55
2022-07-26T12:43:42.772Z,5.25
2022-07-26T12:48:55.522Z,6.85
2022-07-26T12:54:00.866Z,5.15
2022-07-26T12:59:03.876Z,3.92
2022-07-26T13:04:07.010Z,5.57
2022-07-26T13:09:09.753Z,2.85
2022-07-26T13:14:13.542Z,5.50
2022-07-26T13:19:17.668Z,5.75
2022-07-26T13:24:20.912Z,4.03
2022-07-26T13:29:25.242Z,3.80
2022-07-26T13:34:34.782Z,3.63
2022-07-26T13:39:38.442Z,3.78
2022-07-26T13:44:40.826Z,2.90
2022-07-26T13:49:44.457Z,2.95
2022-07-26T13:54:47.400Z,2.85
2022-07-26T13:59:50.089Z,3.90
2022-07-26T14:04:52.888Z,3.03
2022-07-26T14:09:55.672Z,2.78
2022-07-26T14:14:59.181Z,1.90
2022-07-26T14:20:01.765Z,3.88
2022-07-26T14:25:04.915Z,2.30
2022-07-26T14:30:07.857Z,4.82
2022-07-26T14:35:11.560Z,4.53
2022-07-26T14:40:16.318Z,2.55
2022-07-26T14:45:19.091Z,3.65
2022-07-26T14:50:26.241Z,3.63
2022-07-26T14:55:29.115Z,2.67
2022-07-26T15:00:32.167Z,2.78
2022-07-26T15:05:34.658Z,3.92
2022-07-26T15:10:37.813Z,2.42
2022-07-26T15:15:40.710Z,3.83
2022-07-26T15:20:43.517Z,4.47
2022-07-26T15:25:48.818Z,5.82
2022-07-26T15:30:51.667Z,2.92
2022-07-26T15:35:55.704Z,4.15
2022-07-26T15:40:58.524Z,3.63
2022-07-26T15:46:01.137Z,4.35
2022-07-26T15:51:06.036Z,2.97
2022-07-26T15:56:09.410Z,4.18
2022-07-26T16:01:12.056Z,4.88
2022-07-26T16:06:14.871Z,3.80
2022-07-26T16:11:17.754Z,3.50
2022-07-26T16:16:20.483Z,3.47
2022-07-26T16:21:23.487Z,2.80
2022-07-26T16:26:26.636Z,8.65
2022-07-26T16:31:29.217Z,4.13
2022-07-26T16:36:31.926Z,6.63
2022-07-26T16:41:34.508Z,4.78
2022-07-26T16:46:37.043Z,4.78
2022-07-26T16:51:39.902Z,3.63
2022-07-26T16:56:42.556Z,4.88
2022-07-26T17:01:45.620Z,3.20
2022-07-26T17:07:14.511Z,6.70
2022-07-26T17:12:11.669Z,6.90
2022-07-26T17:17:14.347Z,3.92
2022-07-26T17:22:17.589Z,6.22
2022-07-26T17:27:20.227Z,4.70
2022-07-26T17:32:22.957Z,5.13
2022-07-26T17:37:27.847Z,6.85
2022-07-26T17:42:31.568Z,3.78
2022-07-26T17:47:34.166Z,3.03
2022-07-26T17:52:36.845Z,3.95
2022-07-26T17:57:40.222Z,5.22
2022-07-26T18:02:43.123Z,4.82
2022-07-26T18:07:46.516Z,4.55
2022-07-26T18:12:49.511Z,4.70
2022-07-26T18:17:52.172Z,3.95
2022-07-26T18:22:55.839Z,4.70
2022-07-26T18:28:01.980Z,3.20
2022-07-26T18:33:11.056Z,3.70
2022-07-26T18:38:13.770Z,3.70
2022-07-26T18:43:16.527Z,2.65
2022-07-26T18:48:19.346Z,3.42
2022-07-26T18:53:23.304Z,2.60
2022-07-26T18:58:27.534Z,3.50
2022-07-26T19:03:34.892Z,2.65
2022-07-26T19:08:37.446Z,2.00
2022-07-26T19:13:41.901Z,3.28
2022-07-26T19:18:48.933Z,3.47
2022-07-26T19:23:53.028Z,3.28
2022-07-26T19:28:55.800Z,5.25
2022-07-26T19:33:58.234Z,1.85
2022-07-26T19:39:01.632Z,1.38
2022-07-26T19:44:04.723Z,4.18
2022-07-26T19:49:10.350Z,1.95
2022-07-26T19:54:13.454Z,1.98
2022-07-26T19:59:20.889Z,3.55
2022-07-26T20:04:25.335Z,4.28
2022-07-26T20:09:30.139Z,2.30
2022-07-26T20:14:32.822Z,2.25
2022-07-26T20:19:35.460Z,3.58
2022-07-26T20:24:40.825Z,6.15
2022-07-26T20:29:43.347Z,3.88
2022-07-26T20:34:45.792Z,2.95
2022-07-26T20:39:48.388Z,2.63
2022-07-26T20:44:52.956Z,4.32
2022-07-26T20:49:58.477Z,2.67
2022-07-26T20:55:04.440Z,2.90
2022-07-26T21:00:10.064Z,2.90
2022-07-26T21:05:13.626Z,1.45
2022-07-26T21:10:16.772Z,2.38
2022-07-26T21:15:19.531Z,2.55
2022-07-26T21:20:22.325Z,1.83
2022-07-26T21:25:24.932Z,4.50
2022-07-26T21:30:27.726Z,4.10
2022-07-26T21:35:30.730Z,3.25
2022-07-26T21:40:33.490Z,3.03
2022-07-26T21:45:37.135Z,3.03
2022-07-26T21:50:40.016Z,2.15
2022-07-26T21:55:42.757Z,1.52
2022-07-26T22:00:45.383Z,1.33
2022-07-26T22:05:48.751Z,3.75
2022-07-26T22:10:51.637Z,3.78
2022-07-26T22:15:54.481Z,0.88
2022-07-26T22:20:57.228Z,3.78
2022-07-26T22:26:02.408Z,2.05
2022-07-26T22:31:05.040Z,3.20
2022-07-26T22:36:09.797Z,4.88
2022-07-26T22:41:12.456Z,3.95
2022-07-26T22:46:16.404Z,2.47
2022-07-26T22:51:19.610Z,4.30
2022-07-26T22:56:22.419Z,2.92
2022-07-26T23:01:24.946Z,2.55
2022-07-26T23:06:31.403Z,3.50
2022-07-26T23:11:34.855Z,3.53
2022-07-26T23:16:37.949Z,2.20
2022-07-26T23:21:40.874Z,8.48
2022-07-26T23:26:43.434Z,3.17
2022-07-26T23:31:46.000Z,5.93
2022-07-26T23:36:49.059Z,1.80
2022-07-26T23:41:51.723Z,2.67
2022-07-26T23:46:54.237Z,2.75
2022-07-26T23:51:56.815Z,2.35
2022-07-26T23:56:59.530Z,0.98
